Time;durP1;ratioP1;P1;durP2;ratioP2;P2;SDS_P1;SDS_P2;PMS_P1;PMS_P2;Temp;Humidity;BMP_temperature;BMP_pressure;BME280_temperature;BME280_humidity;BME280_pressure;Samples;Min_cycle;Max_cycle;Signal;HPM_P1;HPM_P2
2023/12/09 00:01:57;;;;;;;0.00;0.00;;;;;;;6.55;100.00;99245.75;4872312;29;20043;-76
2023/12/09 00:04:23;;;;;;;0.00;0.00;;;;;;;6.74;100.00;99255.00;4863501;29;20064;-75
2023/12/09 00:06:49;;;;;;;0.00;0.00;;;;;;;6.73;100.00;99226.22;4860740;29;20078;-74
2023/12/09 00:09:17;;;;;;;0.00;0.00;;;;;;;6.91;100.00;99253.97;4856716;29;20028;-73
2023/12/09 00:11:43;;;;;;;0.00;0.00;;;;;;;6.91;100.00;99248.53;4877830;29;20043;-73
2023/12/09 00:14:09;;;;;;;0.10;0.10;;;;;;;6.85;100.00;99236.00;4882001;29;20479;-73
2023/12/09 00:16:37;;;;;;;0.00;0.00;;;;;;;6.89;100.00;99223.50;4867181;29;20052;-74
2023/12/09 00:19:02;;;;;;;0.00;0.00;;;;;;;6.82;100.00;99219.16;4909578;29;20465;-75
2023/12/09 00:21:28;;;;;;;0.00;0.00;;;;;;;6.81;100.00;99217.53;4871041;29;20071;-75
2023/12/09 00:24:01;;;;;;;0.10;0.10;;;;;;;6.96;100.00;99224.88;4907275;29;20059;-73
2023/12/09 00:26:26;;;;;;;0.00;0.00;;;;;;;6.86;100.00;99194.16;4887403;29;20067;-76
2023/12/09 00:28:52;;;;;;;0.00;0.00;;;;;;;6.99;100.00;99223.50;4871941;29;20515;-74
2023/12/09 00:31:20;;;;;;;0.10;0.10;;;;;;;6.84;100.00;99193.63;4892818;29;20096;-74
2023/12/09 00:33:45;;;;;;;0.00;0.00;;;;;;;6.96;100.00;99207.75;4886898;29;20379;-74
2023/12/09 00:36:13;;;;;;;0.00;0.00;;;;;;;7.05;100.00;99214.25;4890682;29;20020;-74
2023/12/09 00:38:39;;;;;;;0.00;0.00;;;;;;;7.06;100.00;99204.22;4884677;29;20033;-75
2023/12/09 00:41:05;;;;;;;0.00;0.00;;;;;;;7.21;100.00;99206.13;4873127;29;20082;-74
2023/12/09 00:43:32;;;;;;;0.00;0.00;;;;;;;7.26;100.00;99208.84;4891777;29;20471;-75
2023/12/09 00:45:59;;;;;;;0.00;0.00;;;;;;;7.20;100.00;99180.00;4893690;29;20017;-75
2023/12/09 00:48:25;;;;;;;0.00;0.00;;;;;;;7.18;100.00;99174.84;4910605;29;20026;-76
2023/12/09 00:50:50;;;;;;;0.00;0.00;;;;;;;7.41;100.00;99211.53;4893680;29;20032;-76
2023/12/09 00:53:16;;;;;;;0.00;0.00;;;;;;;7.34;100.00;99186.50;4891945;29;20032;-75
2023/12/09 00:55:41;;;;;;;0.00;0.00;;;;;;;7.28;100.00;99165.88;4897871;29;20060;-75
2023/12/09 00:58:06;;;;;;;0.00;0.00;;;;;;;7.27;100.00;99164.22;4871743;29;20115;-73
2023/12/09 01:00:32;;;;;;;0.00;0.00;;;;;;;7.35;100.00;99177.28;4892693;29;20024;-77
2023/12/09 01:02:57;;;;;;;0.10;0.10;;;;;;;7.35;100.00;99155.50;4876793;29;20156;-74
2023/12/09 01:05:25;;;;;;;0.00;0.00;;;;;;;7.37;100.00;99150.59;4902871;29;20039;-73
2023/12/09 01:07:53;;;;;;;0.10;0.10;;;;;;;7.29;100.00;99130.22;4888763;29;20119;-75
2023/12/09 01:10:20;;;;;;;0.00;0.00;;;;;;;7.42;100.00;99139.72;4876886;29;20116;-73
2023/12/09 01:12:46;;;;;;;0.00;0.00;;;;;;;7.44;100.00;99123.94;4893349;29;20035;-74
2023/12/09 01:15:14;;;;;;;0.00;0.00;;;;;;;7.67;100.00;99143.44;4884714;29;20588;-73
2023/12/09 01:17:39;;;;;;;0.00;0.00;;;;;;;7.48;100.00;99108.69;4903006;29;20040;-75
2023/12/09 01:20:14;;;;;;;0.00;0.00;;;;;;;7.50;100.00;99101.09;4864596;29;20036;-74
2023/12/09 01:22:39;;;;;;;0.00;0.00;;;;;;;7.69;100.00;99124.94;4898095;29;20029;-73
2023/12/09 01:25:05;;;;;;;0.00;0.00;;;;;;;7.64;100.00;99124.97;4889489;29;20035;-73
2023/12/09 01:27:34;;;;;;;0.00;0.00;;;;;;;7.59;100.00;99106.72;4867765;29;20050;-75
2023/12/09 01:30:02;;;;;;;0.10;0.10;;;;;;;7.54;100.00;99092.38;4899555;29;20038;-75
2023/12/09 01:32:27;;;;;;;0.00;0.00;;;;;;;7.57;100.00;99103.50;4882378;29;20861;-75
2023/12/09 01:34:53;;;;;;;0.03;0.03;;;;;;;7.65;100.00;99115.69;4872489;29;20135;-74
2023/12/09 01:37:22;;;;;;;0.00;0.00;;;;;;;7.63;100.00;99101.56;4876308;29;20036;-75
2023/12/09 01:39:47;;;;;;;0.00;0.00;;;;;;;7.56;100.00;99090.97;4887122;29;20071;-74
2023/12/09 01:42:12;;;;;;;0.00;0.00;;;;;;;7.62;100.00;99094.47;4893213;29;20055;-73
2023/12/09 01:44:38;;;;;;;0.00;0.00;;;;;;;7.62;100.00;99094.47;4879413;29;20024;-74
2023/12/09 01:47:04;;;;;;;0.00;0.00;;;;;;;7.72;100.00;99099.88;4875947;29;20048;-73
2023/12/09 01:49:30;;;;;;;0.10;0.10;;;;;;;7.53;100.00;99061.59;4882843;29;20024;-73
2023/12/09 01:51:59;;;;;;;0.00;0.00;;;;;;;7.60;100.00;99070.28;4887031;29;20032;-74
2023/12/09 01:54:26;;;;;;;0.00;0.00;;;;;;;7.66;100.00;99073.78;4889767;29;20063;-74
2023/12/09 01:56:51;;;;;;;0.00;0.00;;;;;;;7.59;100.00;99056.97;4893969;29;20116;-73
2023/12/09 01:59:17;;;;;;;0.00;0.00;;;;;;;7.67;100.00;99061.81;4905319;29;20123;-73
2023/12/09 02:01:44;;;;;;;0.00;0.00;;;;;;;7.71;100.00;99068.34;4874729;29;20032;-74
2023/12/09 02:04:10;;;;;;;0.00;0.00;;;;;;;7.78;100.00;99066.13;4861854;29;20028;-73
2023/12/09 02:06:35;;;;;;;0.00;0.00;;;;;;;7.65;100.00;99020.47;4870892;29;20096;-73
2023/12/09 02:09:01;;;;;;;0.00;0.00;;;;;;;7.60;100.00;99006.91;4874096;29;20131;-73
2023/12/09 02:11:41;;;;;;;0.00;0.00;;;;;;;7.88;100.00;99035.28;4886810;29;20051;-74
2023/12/09 02:14:14;;;;;;;0.00;0.00;;;;;;;7.66;100.00;98984.00;4901368;29;20035;-73
2023/12/09 02:17:03;;;;;;;0.00;0.00;;;;;;;7.89;100.00;99011.63;4906829;29;20028;-73
2023/12/09 02:19:31;;;;;;;0.00;0.00;;;;;;;7.85;100.00;98998.56;4884640;29;22168;-73
2023/12/09 02:22:01;;;;;;;0.00;0.00;;;;;;;7.89;100.00;98996.09;4901628;29;20098;-74
2023/12/09 02:24:27;;;;;;;0.00;0.00;;;;;;;7.90;100.00;98986.00;4890988;29;20039;-74
2023/12/09 02:26:53;;;;;;;0.00;0.00;;;;;;;7.84;100.00;98971.63;4907226;28;20039;-74
2023/12/09 02:29:24;;;;;;;0.00;0.00;;;;;;;7.88;100.00;98980.06;4936954;28;20027;-74
2023/12/09 02:31:58;;;;;;;0.00;0.00;;;;;;;7.83;100.00;98967.31;4925190;29;20034;-74
2023/12/09 02:34:25;;;;;;;0.03;0.03;;;;;;;7.94;100.00;98962.59;4948806;28;20023;-74
2023/12/09 02:36:52;;;;;;;0.00;0.00;;;;;;;7.90;100.00;98962.34;4924022;28;20066;-73
2023/12/09 02:39:19;;;;;;;0.00;0.00;;;;;;;7.91;100.00;98961.22;4908107;28;20039;-74
2023/12/09 02:41:46;;;;;;;0.00;0.00;;;;;;;7.94;100.00;98954.41;4930705;28;20366;-73
2023/12/09 02:44:12;;;;;;;0.00;0.00;;;;;;;7.92;100.00;98938.38;4925747;28;20028;-73
2023/12/09 02:46:38;;;;;;;0.00;0.00;;;;;;;7.97;100.00;98937.50;4926327;28;20051;-74
2023/12/09 02:49:03;;;;;;;0.00;0.00;;;;;;;7.98;100.00;98944.59;4925893;28;20624;-74
2023/12/09 02:51:31;;;;;;;0.00;0.00;;;;;;;7.95;100.00;98940.53;4905785;28;20422;-72
2023/12/09 02:53:56;;;;;;;0.00;0.00;;;;;;;7.96;100.00;98931.25;4921041;28;20058;-74
2023/12/09 02:56:21;;;;;;;0.10;0.10;;;;;;;8.00;100.00;98921.44;4936825;28;20106;-73
2023/12/09 02:58:47;;;;;;;0.05;0.05;;;;;;;7.99;100.00;98919.81;4929384;28;20521;-73
2023/12/09 03:01:12;;;;;;;0.00;0.00;;;;;;;8.00;100.00;98909.72;4938527;28;20024;-73
2023/12/09 03:03:38;;;;;;;0.00;0.00;;;;;;;7.84;100.00;98874.47;4926420;28;20031;-74
2023/12/09 03:06:04;;;;;;;0.00;0.00;;;;;;;7.89;100.00;98872.81;4924400;28;20114;-74
2023/12/09 03:08:29;;;;;;;0.00;0.00;;;;;;;7.96;100.00;98867.84;4942451;28;20130;-74
2023/12/09 03:10:54;;;;;;;0.00;0.00;;;;;;;7.98;100.00;98861.00;4899387;28;20367;-74
2023/12/09 03:13:20;;;;;;;0.00;0.00;;;;;;;8.05;100.00;98871.56;4911740;28;20050;-75
2023/12/09 03:15:45;;;;;;;0.00;0.00;;;;;;;7.96;100.00;98840.63;4926616;28;21571;-74
2023/12/09 03:18:11;;;;;;;0.00;0.00;;;;;;;8.06;100.00;98831.53;4936931;28;20036;-74
2023/12/09 03:20:36;;;;;;;0.00;0.00;;;;;;;8.14;100.00;98845.31;4930133;28;20023;-73
2023/12/09 03:23:04;;;;;;;0.00;0.00;;;;;;;8.01;100.00;98810.63;4914033;28;20514;-74
2023/12/09 03:25:29;;;;;;;0.00;0.00;;;;;;;8.09;100.00;98803.72;4923936;29;20091;-74
2023/12/09 03:27:55;;;;;;;0.10;0.10;;;;;;;8.00;100.00;98789.94;4919021;28;20443;-74
2023/12/09 03:30:22;;;;;;;0.00;0.00;;;;;;;8.18;100.00;98812.91;4921579;29;20034;-75
2023/12/09 03:32:48;;;;;;;0.00;0.00;;;;;;;8.24;100.00;98810.94;4896819;28;20047;-75
2023/12/09 03:35:13;;;;;;;0.00;0.00;;;;;;;8.11;100.00;98780.56;4926104;29;20039;-75
2023/12/09 03:37:39;;;;;;;0.00;0.00;;;;;;;8.17;100.00;98778.59;4935671;28;20461;-74
2023/12/09 03:40:10;;;;;;;0.00;0.00;;;;;;;8.07;100.00;98752.28;4938833;28;20045;-75
2023/12/09 03:42:35;;;;;;;0.00;0.00;;;;;;;8.15;100.00;98754.38;4946288;28;20043;-76
2023/12/09 03:45:07;;;;;;;0.00;0.00;;;;;;;8.30;100.00;98771.66;4926689;28;20073;-76
2023/12/09 03:47:32;;;;;;;0.00;0.00;;;;;;;8.26;100.00;98759.72;4917005;28;20028;-75
2023/12/09 03:49:58;;;;;;;0.00;0.00;;;;;;;8.25;100.00;98742.56;4927730;28;20681;-74
2023/12/09 03:52:23;;;;;;;0.10;0.10;;;;;;;8.27;100.00;98734.91;4924722;29;20027;-74
2023/12/09 03:54:52;;;;;;;0.00;0.00;;;;;;;8.27;100.00;98728.66;4927510;28;20113;-75
2023/12/09 03:57:22;;;;;;;0.03;0.03;;;;;;;8.25;100.00;98706.34;4915249;28;20034;-75
2023/12/09 03:59:50;;;;;;;0.00;0.00;;;;;;;8.35;100.00;98720.66;4927799;28;20032;-74
2023/12/09 04:02:18;;;;;;;0.00;0.00;;;;;;;8.54;100.00;98728.84;4918336;28;20127;-75
2023/12/09 04:04:46;;;;;;;0.00;0.00;;;;;;;8.59;100.00;98727.19;4932375;28;20054;-75
2023/12/09 04:07:12;;;;;;;0.00;0.00;;;;;;;8.42;100.00;98693.03;4914299;28;20027;-74
2023/12/09 04:09:41;;;;;;;0.00;0.00;;;;;;;8.35;100.00;98666.16;4942560;28;20085;-75
2023/12/09 04:12:11;;;;;;;0.00;0.00;;;;;;;8.53;100.00;98661.84;4916599;28;20602;-74
2023/12/09 04:14:39;;;;;;;0.00;0.00;;;;;;;8.58;100.00;98654.72;4927872;28;20023;-74
2023/12/09 04:17:07;;;;;;;0.00;0.00;;;;;;;8.60;100.00;98657.94;4916789;28;20427;-77
2023/12/09 04:19:32;;;;;;;0.00;0.00;;;;;;;8.48;100.00;98634.66;4897812;28;20097;-75
2023/12/09 04:22:00;;;;;;;0.00;0.00;;;;;;;8.58;100.00;98630.19;4921064;29;20394;-76
2023/12/09 04:24:38;;;;;;;;;;;;;;;;;;;;;
2023/12/09 04:27:21;;;;;;;0.00;0.00;;;;;;;8.53;100.00;98607.34;4925976;28;20058;-77
2023/12/09 04:29:59;;;;;;;0.10;0.10;;;;;;;8.44;100.00;98576.47;4903645;28;20145;-76
2023/12/09 04:32:58;;;;;;;;;;;;;;;;;;;;;
2023/12/09 04:35:43;;;;;;;0.00;0.00;;;;;;;8.57;100.00;98583.03;4940292;28;20385;-77
2023/12/09 04:38:20;;;;;;;0.00;0.00;;;;;;;8.73;100.00;98597.22;4936365;28;20023;-78
2023/12/09 04:42:04;;;;;;;0.00;0.00;;;;;;;8.69;100.00;98582.59;4921766;28;20047;-77
2023/12/09 04:44:33;;;;;;;0.00;0.00;;;;;;;8.78;100.00;98578.06;4833542;29;20113;-77
2023/12/09 04:47:39;;;;;;;0.00;0.00;;;;;;;8.95;100.00;98587.59;4843583;29;20062;-77
2023/12/09 04:50:14;;;;;;;0.00;0.00;;;;;;;8.87;100.00;98573.53;4832704;29;20090;-76
2023/12/09 04:53:20;;;;;;;;;;;;;;;8.95;100.00;98566.59;4853009;29;20033;-78
2023/12/09 04:55:51;;;;;;;0.10;0.10;;;;;;;8.71;100.00;98523.16;4837561;29;19939;-76
2023/12/09 04:58:35;;;;;;;0.10;0.10;;;;;;;8.55;100.00;98492.63;4835496;29;20069;-77
2023/12/09 05:01:50;;;;;;;0.00;0.00;;;;;;;8.79;100.00;98530.63;4831031;29;20034;-77
2023/12/09 05:08:28;;;;;;;;;;;;;;;;;;;;;
2023/12/09 05:11:07;;;;;;;0.00;0.00;;;;;;;8.65;100.00;98456.22;4880257;29;20029;-80
2023/12/09 05:14:15;;;;;;;0.00;0.00;;;;;;;8.89;100.00;98473.22;4921429;28;20034;-78
2023/12/09 05:17:19;;;;;;;0.00;0.00;;;;;;;8.88;100.00;98449.78;4933978;28;20042;-78
2023/12/09 05:19:54;;;;;;;;;;;;;;;;;;;;;
2023/12/09 05:22:56;;;;;;;0.00;0.00;;;;;;;8.55;100.00;98398.09;4875532;29;20067;-77
2023/12/09 05:25:49;;;;;;;0.00;0.00;;;;;;;8.56;100.00;98418.78;4905089;28;20046;-76
2023/12/09 05:28:15;;;;;;;0.00;0.00;;;;;;;8.63;100.00;98401.22;4937817;28;20046;-76
2023/12/09 05:30:48;;;;;;;0.00;0.00;;;;;;;8.69;100.00;98394.56;4938921;28;20043;-78
2023/12/09 05:33:46;;;;;;;0.00;0.00;;;;;;;8.49;100.00;98355.72;4925960;29;20031;-78
2023/12/09 05:37:02;;;;;;;0.00;0.00;;;;;;;8.56;100.00;98342.50;4925632;28;20032;-78
2023/12/09 05:39:30;;;;;;;0.00;0.00;;;;;;;8.93;100.00;98390.81;4893078;28;20050;-77
2023/12/09 05:42:51;;;;;;;0.00;0.00;;;;;;;8.70;100.00;98377.94;4934641;28;20035;-77
2023/12/09 05:45:52;;;;;;;0.10;0.10;;;;;;;8.92;100.00;98368.19;4932554;28;20032;-77
2023/12/09 05:48:20;;;;;;;0.00;0.00;;;;;;;8.73;100.00;98332.88;4921825;28;20177;-77
2023/12/09 05:54:31;;;;;;;0.00;0.00;;;;;;;8.47;100.00;98264.50;4898081;28;20505;-79
2023/12/09 05:57:16;;;;;;;0.10;0.10;;;;;;;8.84;100.00;98309.75;4903380;28;20040;-80
2023/12/09 06:00:27;;;;;;;;;;;;;;;;;;;;;
2023/12/09 06:03:32;;;;;;;;;;;;;;;;;;;;;
2023/12/09 06:06:35;;;;;;;;;;;;;;;;;;;;;
2023/12/09 06:09:14;;;;;;;0.00;0.00;;;;;;;8.75;100.00;98254.38;4811396;29;20038;-78
2023/12/09 06:12:09;;;;;;;0.00;0.00;;;;;;;8.53;100.00;98187.84;4831448;29;20576;-78
2023/12/09 06:14:44;;;;;;;;;;;;;;;8.99;100.00;98250.56;4910104;29;20040;-78
2023/12/09 06:17:20;;;;;;;0.00;0.00;;;;;;;8.56;100.00;98176.31;4916198;28;19974;-77
2023/12/09 06:19:45;;;;;;;0.00;0.00;;;;;;;8.68;100.00;98196.78;4919839;29;20494;-77
2023/12/09 06:22:25;;;;;;;0.00;0.00;;;;;;;8.94;100.00;98234.34;4929579;28;20031;-78
2023/12/09 06:25:08;;;;;;;0.00;0.00;;;;;;;8.56;100.00;98170.88;4946049;28;20561;-77
2023/12/09 06:27:50;;;;;;;0.00;0.00;;;;;;;8.58;100.00;98165.13;4919465;28;20484;-78
2023/12/09 06:30:57;;;;;;;0.00;0.00;;;;;;;9.01;100.00;98231.97;4923138;29;20042;-80
2023/12/09 06:33:25;;;;;;;0.00;0.00;;;;;;;8.99;100.00;98204.22;4922082;29;20409;-80
2023/12/09 06:36:01;;;;;;;0.00;0.00;;;;;;;8.61;100.00;98150.06;4921471;29;20041;-76
2023/12/09 06:38:29;;;;;;;0.00;0.00;;;;;;;8.52;100.00;98126.28;4916112;29;20078;-79
2023/12/09 06:41:44;;;;;;;0.00;0.00;;;;;;;8.73;100.00;98144.88;4924191;29;20031;-76
2023/12/09 06:47:22;;;;;;;0.00;0.00;;;;;;;8.61;100.00;98109.22;4915703;29;20027;-80
2023/12/09 06:49:54;;;;;;;0.00;0.00;;;;;;;8.85;100.00;98150.56;4907253;29;20490;-78
2023/12/09 06:55:47;;;;;;;0.10;0.10;;;;;;;8.65;100.00;98091.13;4919601;29;20051;-80
2023/12/09 07:01:49;;;;;;;0.00;0.00;;;;;;;9.06;100.00;98136.44;4877036;29;20043;-84
2023/12/09 07:08:22;;;;;;;;;;;;;;;;;;;;;
2023/12/09 07:10:48;;;;;;;0.00;0.00;;;;;;;8.91;100.00;98092.09;4841273;29;20043;-82
2023/12/09 07:16:24;;;;;;;0.00;0.00;;;;;;;8.73;100.00;98057.66;4920776;29;20035;-81
2023/12/09 07:18:51;;;;;;;0.00;0.00;;;;;;;8.74;100.00;98040.22;4934794;29;20042;-82
2023/12/09 07:21:20;;;;;;;0.10;0.10;;;;;;;8.94;100.00;98059.91;4942420;29;20027;-84
2023/12/09 07:24:03;;;;;;;0.00;0.00;;;;;;;9.08;100.00;98049.66;4923207;29;20020;-84
2023/12/09 07:26:36;;;;;;;0.00;0.00;;;;;;;9.06;100.00;98024.66;4929041;29;20032;-83
2023/12/09 07:29:05;;;;;;;0.00;0.00;;;;;;;9.06;100.00;98028.19;4916026;29;20043;-82
2023/12/09 07:31:44;;;;;;;;;;;;;;;;;;;;;
2023/12/09 07:34:16;;;;;;;0.00;0.00;;;;;;;9.06;100.00;97994.66;4930554;29;20122;-81
2023/12/09 07:36:46;;;;;;;0.00;0.00;;;;;;;9.25;100.00;98008.84;4931586;29;20028;-83
2023/12/09 07:40:05;;;;;;;0.00;0.00;;;;;;;9.35;100.00;98015.13;4899736;29;20056;-82
2023/12/09 07:42:33;;;;;;;0.00;0.00;;;;;;;9.05;100.00;97973.97;4922745;29;20031;-82
2023/12/09 07:45:01;;;;;;;0.00;0.00;;;;;;;8.98;100.00;97968.16;4914889;29;20032;-82
2023/12/09 07:48:12;;;;;;;0.00;0.00;;;;;;;9.47;100.00;98045.31;4913274;29;20020;-82
2023/12/09 07:50:47;;;;;;;0.00;0.00;;;;;;;9.51;100.00;98037.31;4907950;29;20394;-83
2023/12/09 07:53:26;;;;;;;;;;;;;;;;;;;;;
2023/12/09 07:56:03;;;;;;;0.00;0.00;;;;;;;9.35;100.00;97990.59;4919957;29;20054;-82
2023/12/09 07:58:32;;;;;;;0.10;0.10;;;;;;;9.46;100.00;97983.69;4925407;29;20034;-82
2023/12/09 08:01:01;;;;;;;0.10;0.10;;;;;;;9.53;100.00;97984.03;4919321;29;20032;-79
2023/12/09 08:03:34;;;;;;;0.00;0.00;;;;;;;9.48;100.00;97978.75;4918514;29;20030;-80
2023/12/09 08:06:17;;;;;;;0.00;0.00;;;;;;;9.59;100.00;97966.41;4922790;29;20030;-78
2023/12/09 08:08:53;;;;;;;0.00;0.00;;;;;;;9.54;100.00;97947.44;4919457;29;20067;-80
2023/12/09 08:11:19;;;;;;;0.00;0.00;;;;;;;9.65;100.00;97947.13;4901877;29;20040;-80
2023/12/09 08:14:01;;;;;;;0.00;0.00;;;;;;;9.66;100.00;97959.66;4917070;29;20042;-80
2023/12/09 08:16:29;;;;;;;0.00;0.00;;;;;;;9.46;100.00;97910.03;4898118;29;20032;-81
2023/12/09 08:18:57;;;;;;;0.00;0.00;;;;;;;9.60;100.00;97912.63;4906203;29;20083;-79
2023/12/09 08:25:44;;;;;;;0.00;0.00;;;;;;;9.55;100.00;97878.13;4921017;29;20042;-85
2023/12/09 08:31:46;;;;;;;;;;;;;;;;;;;;;
2023/12/09 08:34:18;;;;;;;0.00;0.00;;;;;;;10.13;100.00;97918.84;4907934;29;20024;-85
2023/12/09 08:36:44;;;;;;;0.00;0.00;;;;;;;9.79;100.00;97855.00;4877233;29;20036;-81
2023/12/09 08:39:10;;;;;;;0.00;0.00;;;;;;;9.96;100.00;97859.63;4898980;29;20044;-80
2023/12/09 08:41:46;;;;;;;0.00;0.00;;;;;;;10.00;100.00;97848.84;4921256;29;20024;-84
2023/12/09 08:47:58;;;;;;;;;;;;;;;;;;;;;
2023/12/09 08:53:26;;;;;;;0.00;0.00;;;;;;;10.09;100.00;97835.97;4920203;29;20055;-80
2023/12/09 08:55:56;;;;;;;0.00;0.00;;;;;;;10.43;100.00;97870.59;4919832;29;20091;-81
2023/12/09 08:58:38;;;;;;;;;;;;;;;;;;;;;
2023/12/09 09:01:24;;;;;;;0.00;0.00;;;;;;;10.33;100.00;97872.84;4925733;29;20030;-81
2023/12/09 09:04:24;;;;;;;;;;;;;;;;;;;;;
2023/12/09 09:07:12;;;;;;;0.08;0.08;;;;;;;10.41;100.00;97858.38;4928120;29;20037;-79
2023/12/09 09:10:27;;;;;;;0.00;0.00;;;;;;;10.77;100.00;97900.81;4918982;29;20071;-81
2023/12/09 09:13:44;;;;;;;0.00;0.00;;;;;;;10.59;100.00;97859.91;4909806;29;20042;-80
2023/12/09 09:16:20;;;;;;;;;;;;;;;;;;;;;
2023/12/09 09:22:20;;;;;;;0.00;0.00;;;;;;;10.95;100.00;97828.53;4900965;29;20047;-81
2023/12/09 09:24:48;;;;;;;0.00;0.00;;;;;;;11.48;100.00;97885.59;4895141;29;20116;-81
2023/12/09 09:27:24;;;;;;;0.05;0.05;;;;;;;11.49;100.00;97870.75;4916661;28;20092;-82
2023/12/09 09:29:52;;;;;;;0.00;0.00;;;;;;;11.56;100.00;97840.91;4916567;29;20035;-80
2023/12/09 09:35:45;;;;;;;;;;;;;;;;;;;;;
2023/12/09 09:38:57;;;;;;;;;;;;;;;;;;;;;
2023/12/09 09:42:03;;;;;;;0.00;0.00;;;;;;;11.57;100.00;97837.06;4921983;29;20039;-80
2023/12/09 09:45:07;;;;;;;;;;;;;;;;;;;;;
2023/12/09 09:50:44;;;;;;;0.00;0.00;;;;;;;12.18;100.00;97915.13;4915800;29;20035;-81
2023/12/09 09:53:25;;;;;;;0.00;0.00;;;;;;;12.00;100.00;97860.53;4908721;29;20019;-81
2023/12/09 09:56:42;;;;;;;0.00;0.00;;;;;;;12.26;100.00;97867.63;4914982;29;20032;-80
2023/12/09 09:59:36;;;;;;;0.00;0.00;;;;;;;12.50;100.00;97860.59;4923610;29;20051;-80
2023/12/09 10:02:17;;;;;;;0.00;0.00;;;;;;;12.69;100.00;97896.50;4927426;29;20023;-80
2023/12/09 10:05:12;;;;;;;0.00;0.00;;;;;;;12.66;100.00;97891.69;4923557;29;20055;-80
2023/12/09 10:08:23;;;;;;;;;;;;;;;;;;;;;
2023/12/09 10:11:04;;;;;;;0.00;0.00;;;;;;;12.42;100.00;97867.00;4934789;28;20032;-80
2023/12/09 10:14:28;;;;;;;;;;;;;;;;;;;;;
2023/12/09 10:17:08;;;;;;;0.00;0.00;;;;;;;12.47;100.00;97870.31;4911726;29;20028;-79
2023/12/09 10:19:55;;;;;;;0.00;0.00;;;;;;;12.56;100.00;97883.91;4918191;29;20016;-79
2023/12/09 10:22:37;;;;;;;;;;;;;;;;;;;;;
2023/12/09 10:25:03;;;;;;;0.00;0.00;;;;;;;12.49;100.00;97936.53;4925539;29;20039;-81
2023/12/09 10:27:29;;;;;;;0.00;0.00;;;;;;;12.14;100.00;97892.28;4925236;28;20100;-81
2023/12/09 10:30:23;;;;;;;0.00;0.00;;;;;;;12.18;100.00;97920.59;4925224;29;20031;-79
2023/12/09 10:32:59;;;;;;;0.10;0.10;;;;;;;12.01;100.00;97911.41;4915895;29;20095;-79
2023/12/09 10:35:24;;;;;;;0.00;0.00;;;;;;;12.08;100.00;97921.03;4928514;29;20031;-79
2023/12/09 10:38:13;;;;;;;0.00;0.00;;;;;;;11.84;100.00;97895.09;4914948;29;20022;-79
2023/12/09 10:41:29;;;;;;;0.00;0.00;;;;;;;12.25;100.00;97970.19;4885915;29;20383;-80
2023/12/09 10:43:54;;;;;;;0.00;0.00;;;;;;;12.01;100.00;97927.84;4941582;28;20039;-80
2023/12/09 10:46:23;;;;;;;0.00;0.00;;;;;;;11.93;100.00;97909.56;4923563;29;20044;-80
2023/12/09 10:48:49;;;;;;;0.00;0.00;;;;;;;12.25;100.00;97925.53;4918009;29;20039;-79
2023/12/09 10:51:43;;;;;;;0.00;0.00;;;;;;;12.26;100.00;97916.16;4918495;29;20028;-79
2023/12/09 10:54:25;;;;;;;;;;;;;;;;;;;;;
2023/12/09 10:56:51;;;;;;;0.00;0.00;;;;;;;12.36;100.00;97916.53;4914505;29;20051;-80
2023/12/09 10:59:49;;;;;;;0.00;0.00;;;;;;;12.46;100.00;97930.97;4923577;29;20032;-80
2023/12/09 11:02:29;;;;;;;0.00;0.00;;;;;;;12.86;100.00;97949.50;4914883;29;20051;-79
2023/12/09 11:05:27;;;;;;;;;;;;;;;;;;;;;
2023/12/09 11:07:47;;;;;;;0.00;0.00;;;;;;;13.16;100.00;97935.59;4921527;29;20459;-79
2023/12/09 11:10:16;;;;;;;0.00;0.00;;;;;;;13.18;100.00;97914.06;4924522;29;20032;-80
2023/12/09 11:12:46;;;;;;;0.00;0.00;;;;;;;14.92;100.00;97945.25;4926008;29;20042;-80
2023/12/09 11:15:15;;;;;;;0.08;0.08;;;;;;;17.66;100.00;97933.97;4920643;29;20027;-79
2023/12/09 11:17:51;;;;;;;0.00;0.00;;;;;;;19.73;100.00;97900.31;4905840;29;20036;-80
2023/12/09 11:20:18;;;;;;;0.00;0.00;;;;;;;20.98;78.35;97896.25;4927834;29;20502;-80
2023/12/09 11:22:50;;;;;;;0.00;0.00;;;;;;;21.06;75.78;97906.19;4911137;29;20423;-81
2023/12/09 11:25:25;;;;;;;0.10;0.10;;;;;;;21.75;71.98;97929.13;4922007;29;20479;-81
2023/12/09 11:27:58;;;;;;;0.00;0.00;;;;;;;21.10;68.14;97856.97;4918238;29;20130;-81
2023/12/09 11:33:44;;;;;;;0.00;0.00;;;;;;;22.83;61.74;97872.88;4924689;29;20032;-81
2023/12/09 11:36:14;;;;;;;0.00;0.00;;;;;;;22.14;59.35;97866.97;4917435;29;20538;-82
2023/12/09 11:38:39;;;;;;;0.00;0.00;;;;;;;21.51;58.43;97841.00;4928051;29;20042;-82
2023/12/09 11:41:15;;;;;;;;;;;;;;;;;;;;;
2023/12/09 11:43:51;;;;;;;0.00;0.00;;;;;;;22.89;56.15;97886.38;4931090;29;20128;-82
2023/12/09 11:46:17;;;;;;;0.00;0.00;;;;;;;24.08;53.08;97913.88;4919897;29;20016;-83
2023/12/09 11:49:27;;;;;;;;;;;;;;;;;;;;;
2023/12/09 11:51:52;;;;;;;0.00;0.00;;;;;;;21.05;53.27;97909.38;4926455;28;20131;-82
2023/12/09 11:54:19;;;;;;;0.00;0.00;;;;;;;18.33;60.78;97877.09;4929121;29;20394;-82
2023/12/09 11:59:40;;;;;;;0.00;0.00;;;;;;;21.79;50.33;97916.00;4919330;29;20039;-83
2023/12/09 12:02:07;;;;;;;0.00;0.00;;;;;;;22.33;48.13;97940.06;4907392;29;20020;-84
2023/12/09 12:04:43;;;;;;;;;;;;;;;;;;;;;
2023/12/09 12:07:09;;;;;;;0.00;0.00;;;;;;;22.84;43.48;98008.19;4926797;29;20008;-81
2023/12/09 12:09:45;;;;;;;;;;;;;;;;;;;;;
2023/12/09 12:12:11;;;;;;;0.00;0.00;;;;;;;21.78;44.94;97950.56;4929488;29;20030;-81
2023/12/09 12:14:52;;;;;;;0.00;0.00;;;;;;;21.93;44.46;97956.09;4952220;28;20313;-82
2023/12/09 12:17:31;;;;;;;0.00;0.00;;;;;;;22.36;43.54;97983.00;4929029;29;20427;-84
2023/12/09 12:20:20;;;;;;;0.00;0.00;;;;;;;20.39;44.14;97965.97;4928277;29;20027;-82
2023/12/09 12:22:55;;;;;;;0.00;0.00;;;;;;;17.69;51.75;97996.78;4935048;29;20043;-81
2023/12/09 12:25:25;;;;;;;0.00;0.00;;;;;;;15.96;58.34;97975.19;4910649;29;20036;-83
2023/12/09 12:27:50;;;;;;;0.00;0.00;;;;;;;15.08;60.85;97984.56;4940363;28;20694;-81
2023/12/09 12:30:18;;;;;;;0.00;0.00;;;;;;;15.26;62.76;97978.69;4939095;29;20036;-81
2023/12/09 12:32:55;;;;;;;0.00;0.00;;;;;;;16.74;57.12;98022.00;4903291;29;20039;-82
2023/12/09 12:35:25;;;;;;;0.00;0.00;;;;;;;15.36;57.25;97998.22;4937516;29;20023;-82
2023/12/09 12:37:53;;;;;;;0.00;0.00;;;;;;;13.92;61.58;97983.41;4923651;29;20032;-83
2023/12/09 12:40:21;;;;;;;0.00;0.00;;;;;;;13.39;63.72;98013.59;4941385;29;20032;-84
2023/12/09 12:42:50;;;;;;;0.00;0.00;;;;;;;12.96;65.96;98003.91;4907895;29;20051;-82
2023/12/09 12:45:26;;;;;;;0.00;0.00;;;;;;;12.69;67.27;97988.94;4919047;29;20031;-81
2023/12/09 12:47:54;;;;;;;0.00;0.00;;;;;;;12.46;68.10;97986.56;4936794;29;20015;-81
2023/12/09 12:50:20;;;;;;;0.00;0.00;;;;;;;13.78;65.39;98000.28;4927063;29;20027;-81
2023/12/09 12:53:24;;;;;;;;;;;;;;;;;;;;;
2023/12/09 12:55:54;;;;;;;0.10;0.10;;;;;;;13.95;60.06;98001.16;4924201;29;20136;-82
2023/12/09 12:58:20;;;;;;;0.00;0.00;;;;;;;12.99;64.16;98014.22;4916541;29;20047;-81
2023/12/09 13:00:49;;;;;;;0.00;0.00;;;;;;;12.84;65.18;98003.91;4935170;29;20024;-81
2023/12/09 13:03:27;;;;;;;0.00;0.00;;;;;;;12.75;67.39;98037.72;4939336;29;20052;-82
2023/12/09 13:05:56;;;;;;;0.00;0.00;;;;;;;12.57;67.99;98041.75;4927744;29;20023;-82
2023/12/09 13:08:29;;;;;;;0.10;0.10;;;;;;;12.52;68.59;98072.13;4926737;29;20131;-81
2023/12/09 13:11:07;;;;;;;0.00;0.00;;;;;;;13.16;67.44;98045.34;4947458;29;20110;-81
2023/12/09 13:13:40;;;;;;;0.00;0.00;;;;;;;15.75;58.03;98005.78;4913337;29;20131;-80
2023/12/09 13:16:16;;;;;;;0.00;0.00;;;;;;;17.65;50.68;98076.06;4933592;29;20031;-81
2023/12/09 13:18:44;;;;;;;0.00;0.00;;;;;;;17.95;49.15;98018.88;4914893;29;20034;-79
2023/12/09 13:21:17;;;;;;;0.00;0.00;;;;;;;18.38;47.87;98062.13;4935713;29;20083;-80
2023/12/09 13:23:45;;;;;;;0.00;0.00;;;;;;;17.63;48.48;98012.88;4920701;29;20035;-80
2023/12/09 13:26:13;;;;;;;0.00;0.00;;;;;;;17.95;47.99;98046.53;4935155;29;20016;-80
2023/12/09 13:28:45;;;;;;;0.00;0.00;;;;;;;17.98;47.84;98060.81;4919416;29;20100;-79
2023/12/09 13:31:11;;;;;;;0.00;0.00;;;;;;;16.72;51.21;98037.38;4927738;29;20545;-83
2023/12/09 13:33:36;;;;;;;0.00;0.00;;;;;;;16.84;51.33;98062.03;4910225;29;20032;-80
2023/12/09 13:36:02;;;;;;;0.00;0.00;;;;;;;17.18;50.40;98081.59;4911992;29;20075;-80
2023/12/09 13:38:39;;;;;;;0.00;0.00;;;;;;;17.50;49.43;98075.81;4932587;29;20020;-81
2023/12/09 13:41:06;;;;;;;0.00;0.00;;;;;;;17.94;48.42;98069.81;4923935;29;20031;-80
2023/12/09 13:43:50;;;;;;;;;;;;;;;;;;;;;